• Join FlightAware (Why Join?)
  • Login
  • US Flag 
09:15PM EDT


 

Airport Tracker/Info


-or-


 

Live Flight TrackerFlight Track Log ✈ N154CS ✈ 27-Jun-2013 ✈ KHYA - KFRG

Flight Track Log - Related Links

Times and Time Zones

All times are in EDT time to prevent confusion due to time zone crossing. See the N154CS flight status page for this flight to view local times or setup timezone preferences in your user account.

Time Position Orientation Groundspeed Altitude Reporting Facility
EDT Latitude Longitude Course Direction KTS MPH feet Rate Location/Type
02:08PM 41.3732 -70.8565 267° West  Level FlightAware Approximate
02:09PM 41.3680 -70.9836 267° West  Level FlightAware Approximate
02:10PM 41.3667 -71.1109 270° West  Level FlightAware Approximate
02:11PM 41.3620 -71.2379 265° West  Level FlightAware Approximate
02:12PM 41.3535 -71.3646 265° West  Level FlightAware Approximate
02:13PM 41.3472 -71.4916 267° West  Level FlightAware Approximate
02:14PM 41.3424 -71.6187 267° West  Level FlightAware Approximate
02:15PM 41.3375 -71.7457 267° West  Level FlightAware Approximate
02:16PM 41.3315 -71.8727 264° West  Level FlightAware Approximate
02:17PM 41.3209 -71.9991 264° West  Level FlightAware Approximate
02:18PM 41.2837 -72.1120 235° Southwest  Level FlightAware Approximate
02:18PM 41.3847 -70.8603 234° Southwest 151 174 6,100  Level Boston Center
02:19PM 41.2285 -72.2156 235° Southwest  Level FlightAware Approximate
02:19PM 41.3797 -70.9378 265° West 150 173 6,100  Level Boston Center
02:20PM 41.1730 -72.3190 234° Southwest  Level FlightAware Approximate
02:20PM 41.3803 -70.9933 271° West 150 173 6,100  Level Boston Center
02:21PM 41.1167 -72.4215 234° Southwest  Level FlightAware Approximate
02:21PM 41.3769 -71.0486 265° West 150 173 6,100  Level Boston Center
02:22PM 41.0604 -72.5238 234° Southwest  Level FlightAware Approximate
02:22PM 41.3733 -71.1039 265° West 150 173 6,100  Level Boston Center
02:23PM 41.0039 -72.6260 234° Southwest  Level FlightAware Approximate
02:23PM 41.3719 -71.1567 268° West 150 173 6,100  Level Boston Center
02:24PM 41.3706 -71.2119 268° West 150 173 6,100  Level Boston Center
02:25PM 41.3689 -71.2644 268° West 151 174 6,100  Level Boston Center
02:26PM 41.3633 -71.3228 263° West 149 171 6,100  Level Boston Center
02:27PM 41.3617 -71.3781 268° West 148 170 6,100  Level Boston Center
02:28PM 41.3603 -71.4389 268° West 147 169 6,100  Level Boston Center
02:29PM 41.3564 -71.4889 264° West 147 169 6,100  Level Boston Center
02:30PM 41.3569 -71.5414 271° West 148 170 6,100  Level Boston Center
02:31PM 41.3511 -71.5939 262° West 146 168 6,100  Level Boston Center
02:32PM 41.3472 -71.6519 265° West 148 170 6,100  Level Boston Center
02:33PM 41.3456 -71.7019 267° West 146 168 6,100  Level Boston Center
02:35PM 41.3419 -71.8153 268° West 148 170 6,200  Climbing Boston Center
02:36PM 41.3381 -71.8650 264° West 148 170 6,100 -60 Descending Boston Center
02:37PM 41.3342 -71.9314 266° West 148 170 6,100  Level Boston Center
02:38PM 41.3325 -71.9839 268° West 149 171 6,100  Level Boston Center
02:39PM 41.3286 -72.0447 265° West 146 168 6,100  Level Boston Center
02:40PM 41.3078 -72.0919 240° Southwest 164 189 6,100  Level Boston Center
02:43PM 41.2500 -72.2000 235° Southwest 147 169 6,100  Level New York TRACON
02:44PM 41.2333 -72.2333 236° Southwest 147 169 6,100  Level New York TRACON
02:45PM 41.2000 -72.2833 228° Southwest 148 170 6,100  Level New York TRACON
02:46PM 41.1833 -72.3167 236° Southwest 149 171 6,100  Level New York TRACON
02:47PM 41.1500 -72.3667 228° Southwest 148 170 6,100  Level New York TRACON
02:48PM 41.1167 -72.4000 217° Southwest 147 169 6,100  Level New York TRACON
02:49PM 41.1000 -72.4500 246° West 147 169 6,100  Level New York TRACON
02:50PM 41.0667 -72.4833 217° Southwest 149 171 6,100  Level New York TRACON
02:51PM 41.0500 -72.5333 246° West 149 171 6,100  Level New York TRACON
02:52PM 41.0333 -72.5833 246° West 151 174 6,100  Level New York TRACON
02:53PM 41.0000 -72.6333 229° Southwest 153 176 6,100  Level New York TRACON
02:54PM 40.9833 -72.6833 246° West 153 176 6,100  Level New York TRACON
02:55PM 40.9667 -72.7333 246° West 154 177 6,100  Level New York TRACON
02:56PM 40.9500 -72.7833 246° West 147 169 6,100 -180 Level New York TRACON
02:57PM 40.9333 -72.8333 246° West 133 153 5,800 -360 Descending New York TRACON
02:58PM 40.9167 -72.8667 237° Southwest 134 154 5,400 -660 Descending New York TRACON
02:59PM 40.8833 -72.9000 217° Southwest 145 167 4,600 -660 Descending New York TRACON
03:00PM 40.8667 -72.9500 246° West 137 158 4,100 -240 Descending New York TRACON
03:01PM 40.8500 -73.0000 246° West 137 158 4,100 -180 Level New York TRACON
03:02PM 40.8333 -73.0500 246° West 141 162 3,800 -540 Descending New York TRACON
03:03PM 40.8333 -73.1000 270° West 136 157 3,100 -360 Descending New York TRACON
03:04PM 40.8167 -73.1333 237° Southwest 133 153 3,100  Level New York TRACON
03:05PM 40.8167 -73.1833 270° West 127 146 3,100  Level New York TRACON
03:06PM 40.8167 -73.2333 270° West 131 151 3,100 -120 Level New York TRACON
03:07PM 40.8333 -73.2667 303° West 135 155 2,900 -480 Descending New York TRACON
03:08PM 40.8500 -73.3167 294° West 139 160 2,300 -420 Descending New York TRACON
03:09PM 40.8667 -73.3500 303° West 122 140 2,100 -120 Descending New York TRACON
03:10PM 40.8500 -73.4000 246° West 112 129 2,100 -120 Level New York TRACON
03:11PM 40.8167 -73.4167 201° Southwest 114 131 1,900 -300 Descending New York TRACON
03:12PM 40.7833 -73.4167 180° South 110 127 1,500 -420 Descending New York TRACON
03:13PM 40.7667 -73.4167 180° South 92 106 1,100 -540 Descending New York TRACON
03:14PM 40.7333 -73.4167 180° South 103 119 500 -600 Descending New York TRACON
03:16PM 40.7288 -73.4134 229° Southwest  Level Estimated
03:23PM 40.7288 -73.4134 229° Southwest  Level Estimated